Latest Weather Observations for Bega

IDN60801

Issued at 7:05 pm EDT Thursday 27 November 2014 (issued every 30 minutes, with the page automatically refreshed every 10 minutes)

About weather observations | Map of weather stations | Latest weather observations for NSW | Other Formats
Station Details ID: 069139 Name: BEGA AWS Lat: -36.67 Lon: 149.82 Height: 41.0 m
Data from the previous 72 hours. | See also: Recent months at Bega
Date/Time
EDT
Temp
°C
App
Temp
°C
Dew
Point
Rel
Hum
%
Delta-T
°C
Wind Press
QNH
hPa
Press
MSL
hPa
Rain
since 9 am
mm
Dir
 
Spd
km/h
Gust
km/h
Spd
kts
Gust
kts
27/07:00pm 16.7 13.7 10.8 68 3.1 E 17 22 9 12 1024.2 1024.1 0.0
27/06:30pm 17.2 14.4 11.2 68 3.2 E 17 22 9 12 1023.9 1023.8 0.0
27/06:00pm 17.7 14.7 10.8 64 3.7 E 17 20 9 11 1023.4 1023.3 0.0
27/05:30pm 18.3 15.4 11.1 63 3.9 E 17 20 9 11 1023.3 1023.2 0.0
27/05:00pm 18.5 15.1 10.6 60 4.2 E 19 26 10 14 1023.3 1023.2 0.0
27/04:30pm 19.2 16.3 11.0 59 4.5 E 17 26 9 14 1023.0 1022.9 0.0
27/04:00pm 20.0 16.8 11.2 57 4.8 E 19 28 10 15 1023.1 1023.0 0.0
27/03:30pm 19.6 16.2 11.1 58 4.7 ESE 20 28 11 15 1023.1 1023.0 0.0
27/03:00pm 20.4 16.7 10.2 52 5.5 ESE 20 28 11 15 1023.1 1023.0 0.0
27/02:30pm 21.1 17.9 11.4 54 5.4 ESE 19 26 10 14 1023.1 1023.0 0.0
27/02:00pm 20.6 17.2 10.7 53 5.4 SE 19 26 10 14 1023.1 1023.0 0.0
27/01:30pm 20.2 16.2 10.6 54 5.2 E 22 30 12 16 1022.9 1022.8 0.0
27/01:00pm 20.8 18.2 12.0 57 4.9 E 17 26 9 14 1023.0 1022.9 0.0
27/12:30pm 20.3 17.0 11.0 55 5.1 E 19 28 10 15 1022.8 1022.7 0.0
27/12:00pm 19.8 16.5 11.0 57 4.8 ESE 19 28 10 15 1023.0 1022.9 0.0
27/11:30am 20.6 18.8 13.3 63 4.2 ESE 15 20 8 11 1022.9 1022.8 0.0
27/11:00am 19.1 17.3 12.1 64 3.9 NE 13 19 7 10 1023.1 1023.0 0.0
27/10:30am 18.6 17.3 11.2 62 4.0 E 9 15 5 8 1023.2 1023.1 0.0
27/10:00am 17.4 16.5 10.5 64 3.7 SSE 6 13 3 7 1023.4 1023.3 0.0
27/09:30am 16.6 15.3 9.8 64 3.6 S 7 11 4 6 1023.6 1023.5 0.0
27/09:00am 16.8 14.9 10.4 66 3.4 SSE 11 17 6 9 1023.8 1023.7 1.6
27/08:30am 16.7 15.4 11.2 70 3.0 SSE 9 19 5 10 1023.4 1023.3 1.6
27/08:00am 15.4 15.6 10.6 73 2.5 CALM 0 0 0 0 1023.5 1023.4 1.6
27/07:30am 15.2 14.9 11.6 79 1.9 S 4 7 2 4 1023.2 1023.1 1.6
27/07:00am 14.2 14.5 10.8 80 1.8 CALM 0 0 0 0 1023.0 1022.9 1.6
27/06:30am 13.6 13.5 10.8 83 1.5 SE 2 6 1 3 1022.7 1022.6 1.6
27/06:00am 13.3 13.7 11.2 87 1.1 CALM 0 0 0 0 1022.4 1022.3 1.6
27/05:30am 13.4 12.8 11.8 90 0.9 SSE 6 7 3 4 1022.1 1022.0 1.6
27/05:00am 13.6 12.8 11.8 89 1.0 SE 7 9 4 5 1021.8 1021.7 1.6
27/04:30am 14.6 14.7 14.0 96 0.3 SSE 6 11 3 6 1021.3 1021.2 1.6
27/04:00am 14.7 16.0 14.2 97 0.3 CALM 0 0 0 0 1021.1 1021.0 1.6
27/03:30am 14.6 15.9 14.1 97 0.3 CALM 0 0 0 0 1021.0 1020.9 1.6
27/03:00am 14.6 15.9 14.0 96 0.3 CALM 0 0 0 0 1021.1 1021.0 1.6
27/02:30am 14.7 14.7 14.1 96 0.3 SSW 7 11 4 6 1021.2 1021.1 1.6
27/02:00am 15.0 14.0 14.5 97 0.3 S 13 15 7 8 1021.4 1021.3 1.6
27/01:30am 15.2 13.8 14.6 96 0.3 N 15 20 8 11 1021.0 1020.9 1.6
27/01:00am 14.9 16.3 14.3 96 0.3 CALM 0 0 0 0 1021.8 1021.7 1.6
27/12:30am 14.9 15.0 14.4 97 0.3 S 7 7 4 4 1021.8 1021.7 1.6
27/12:00am 15.0 15.1 14.5 97 0.3 SSW 7 9 4 5 1022.0 1021.9 1.6
 
Date/Time
EDT
Temp
°C
App
Temp
°C
Dew
Point
Rel
Hum
%
Delta-T
°C
Wind Press
QNH
hPa
Press
MSL
hPa
Rain
since 9 am
mm
Dir
 
Spd
km/h
Gust
km/h
Spd
kts
Gust
kts
26/11:30pm 15.2 14.5 14.4 95 0.5 SW 11 15 6 8 1022.0 1021.9 1.4
26/11:00pm 15.4 14.9 14.8 96 0.3 SW 11 15 6 8 1022.1 1022.0 1.4
26/10:30pm 15.4 15.2 14.8 96 0.3 SSW 9 11 5 6 1022.1 1022.0 1.4
26/10:00pm 15.6 17.2 14.8 95 0.5 CALM 0 6 0 3 1021.9 1021.8 1.4
26/09:30pm 15.5 15.9 14.7 95 0.5 S 6 7 3 4 1021.7 1021.6 1.4
26/09:00pm 15.5 15.5 14.2 92 0.7 NW 7 9 4 5 1021.4 1021.3 1.4
26/08:30pm 15.7 16.4 13.4 86 1.3 SSW 2 7 1 4 1021.0 1020.9 1.4
26/08:00pm 17.0 17.5 13.9 82 1.8 ENE 4 6 2 3 1020.9 1020.8 0.2
26/07:30pm 17.5 16.5 12.4 72 2.8 ENE 9 11 5 6 1020.5 1020.4 0.0
26/07:00pm 17.8 16.5 12.5 71 2.9 ENE 11 13 6 7 1020.0 1019.9 0.0
26/06:30pm 17.9 15.7 12.1 69 3.2 ENE 15 20 8 11 1019.5 1019.4 0.0
26/06:00pm 18.1 15.2 12.3 69 3.2 ENE 19 22 10 12 1019.2 1019.1 0.0
26/05:30pm 18.2 15.0 12.0 67 3.4 ENE 20 26 11 14 1019.1 1019.0 0.0
26/05:00pm 19.7 17.3 12.7 64 3.9 ENE 17 20 9 11 1018.9 1018.8 0.0
26/04:30pm 19.4 17.6 13.3 68 3.5 ENE 15 22 8 12 1018.7 1018.6 0.0
26/04:00pm 19.6 16.7 12.8 65 3.8 ESE 20 30 11 16 1018.5 1018.4 0.0
26/03:30pm 20.0 17.4 13.9 68 3.5 ESE 20 32 11 17 1018.5 1018.4 0.0
26/03:00pm 20.6 17.1 14.5 68 3.6 ESE 26 35 14 19 1018.3 1018.2 0.0
26/02:30pm 21.6 18.1 14.5 64 4.2 ESE 26 35 14 19 1018.2 1018.1 0.0
26/02:00pm 22.5 19.4 14.4 60 4.8 ESE 24 33 13 18 1017.8 1017.7 0.0
26/01:30pm 22.2 19.1 13.5 57 5.0 ESE 22 33 12 18 1017.6 1017.5 0.0
26/01:00pm 21.8 19.3 14.2 62 4.4 ESE 20 30 11 16 1017.6 1017.5 0.0
26/12:30pm 22.1 20.3 13.2 57 5.1 ESE 15 22 8 12 1017.7 1017.6 0.0
26/12:00pm 22.0 20.2 14.4 62 4.5 E 17 20 9 11 1018.0 1017.9 0.0
26/11:30am 22.8 21.9 13.8 57 5.2 ESE 11 17 6 9 1018.2 1018.1 0.0
26/11:00am 21.7 20.7 13.3 59 4.8 ESE 11 17 6 9 1018.3 1018.2 0.0
26/10:30am 20.7 20.1 12.4 59 4.7 ENE 7 15 4 8 1018.7 1018.6 0.0
26/10:00am 20.7 19.3 13.4 63 4.2 ESE 13 20 7 11 1019.1 1019.0 0.0
26/09:30am 19.4 19.5 14.0 71 3.1 ESE 6 11 3 6 1019.6 1019.5 0.0
26/09:00am 18.5 18.6 13.8 74 2.7 ENE 6 11 3 6 1019.5 1019.4 0.0
26/08:30am 17.8 18.6 13.7 77 2.3 NNE 2 7 1 4 1019.7 1019.6 0.0
26/08:00am 17.2 18.2 13.3 78 2.2 CALM 0 6 0 3 1019.6 1019.5 0.0
26/07:30am 16.6 17.6 13.1 80 2.0 CALM 0 0 0 0 1019.5 1019.4 0.0
26/07:00am 16.0 17.2 13.7 86 1.3 CALM 0 2 0 1 1019.6 1019.5 0.0
26/06:30am 15.0 14.3 13.2 89 1.0 WNW 9 11 5 6 1019.5 1019.4 0.0
26/06:00am 14.7 14.3 13.1 90 0.9 NW 7 7 4 4 1019.2 1019.1 0.0
26/05:30am 15.1 14.9 13.1 88 1.1 NNW 6 7 3 4 1019.0 1018.9 0.0
26/05:00am 15.3 14.9 13.0 86 1.3 NNW 7 9 4 5 1018.9 1018.8 0.0
26/04:30am 15.9 15.0 12.6 81 1.8 NE 9 13 5 7 1018.8 1018.7 0.0
26/04:00am 15.8 14.9 12.7 82 1.7 ENE 9 13 5 7 1018.7 1018.6 0.0
26/03:30am 16.3 15.7 13.6 84 1.5 NNE 9 13 5 7 1018.7 1018.6 0.0
26/03:00am 16.2 15.8 13.1 82 1.7 N 7 9 4 5 1018.9 1018.8 0.0
26/02:30am 16.0 15.7 13.3 84 1.5 N 7 9 4 5 1019.0 1018.9 0.0
26/02:00am 15.8 15.1 13.3 85 1.4 NNE 9 11 5 6 1019.4 1019.3 0.0
26/01:30am 16.0 14.2 13.3 84 1.5 NNE 15 19 8 10 1019.6 1019.5 0.0
26/01:00am 16.3 14.1 13.2 82 1.7 NNE 17 20 9 11 1019.8 1019.7 0.0
26/12:30am 16.6 14.3 12.9 79 2.1 NE 17 20 9 11 1020.0 1019.9 0.0
26/12:00am 16.8 14.1 12.9 78 2.2 NE 19 24 10 13 1020.2 1020.1 0.0
 
Date/Time
EDT
Temp
°C
App
Temp
°C
Dew
Point
Rel
Hum
%
Delta-T
°C
Wind Press
QNH
hPa
Press
MSL
hPa
Rain
since 9 am
mm
Dir
 
Spd
km/h
Gust
km/h
Spd
kts
Gust
kts
25/11:30pm 17.0 15.1 12.9 77 2.3 NE 15 17 8 9 1020.3 1020.2 0.0
25/11:00pm 17.2 14.8 12.7 75 2.5 NNE 17 22 9 12 1020.3 1020.2 0.0
25/10:30pm 17.3 15.7 12.8 75 2.5 NNE 13 19 7 10 1020.2 1020.1 0.0
25/10:00pm 17.2 16.4 12.9 76 2.4 NNE 9 15 5 8 1020.0 1019.9 0.0
25/09:30pm 17.1 16.3 13.0 77 2.3 NNE 9 13 5 7 1019.6 1019.5 0.0
25/09:00pm 17.1 16.0 13.2 78 2.2 NNE 11 15 6 8 1019.3 1019.2 0.0
25/08:30pm 17.1 16.0 13.2 78 2.2 NNE 11 13 6 7 1018.9 1018.8 0.0
25/08:00pm 17.2 15.6 12.9 76 2.4 NE 13 19 7 10 1018.5 1018.4 0.0
25/07:30pm 17.5 15.2 13.0 75 2.5 NE 17 20 9 11 1018.1 1018.0 0.0
25/07:00pm 18.1 15.2 12.3 69 3.2 ENE 19 22 10 12 1017.5 1017.4 0.0
25/06:30pm 18.8 15.5 11.6 63 4.0 ENE 20 28 11 15 1016.9 1016.8 0.0
25/06:00pm 19.5 15.4 11.5 60 4.4 ENE 24 28 13 15 1016.5 1016.4 0.0
25/05:30pm 20.0 15.4 11.2 57 4.8 ENE 26 30 14 16 1016.1 1016.0 0.0
25/05:00pm 20.3 15.1 10.1 52 5.5 NE 28 37 15 20 1015.7 1015.6 0.0
25/04:30pm 21.5 17.3 11.2 52 5.7 ENE 24 32 13 17 1015.5 1015.5 0.0
25/04:00pm 22.3 17.9 9.1 43 7.1 ENE 22 33 12 18 1015.2 1015.2 0.0
25/03:30pm 21.9 16.5 9.4 45 6.7 ENE 28 33 15 18 1014.8 1014.8 0.0
25/03:00pm 22.4 17.1 9.9 45 6.8 E 28 33 15 18 1014.4 1014.4 0.0
25/02:49pm 23.1 17.2 9.1 41 7.5 NE 30 41 16 22 1014.0 1014.0 0.0
25/02:30pm 24.1 20.6 8.9 38 8.2 SE 17 22 9 12 1014.0 1014.0 0.0
25/02:00pm 24.7 19.5 3.4 25 10.4 SW 20 28 11 15 1014.0 1014.0 0.0
25/01:30pm 24.0 20.2 3.9 27 9.9 SSW 13 22 7 12 1014.3 1014.3 0.0
25/01:00pm 23.8 19.2 3.7 27 9.8 WSW 17 24 9 13 1014.5 1014.5 0.0
25/12:30pm 23.3 19.4 5.2 31 9.1 WNW 15 22 8 12 1014.8 1014.8 0.0
25/12:00pm 22.1 17.5 5.5 34 8.3 SSW 19 32 10 17 1014.8 1014.8 0.0
25/11:30am 22.4 17.8 5.8 34 8.4 W 19 24 10 13 1014.7 1014.7 0.0
25/11:00am 21.5 16.9 6.6 38 7.6 SSW 20 30 11 16 1014.5 1014.5 0.0
25/10:30am 20.6 15.7 6.9 41 7.0 WSW 22 39 12 21 1014.4 1014.4 0.0
25/10:00am 20.0 15.1 6.7 42 6.7 SSW 22 32 12 17 1014.3 1014.3 0.0
25/09:30am 19.0 13.8 7.4 47 5.9 SW 24 33 13 18 1014.2 1014.2 0.0
25/09:00am 18.3 13.4 7.1 48 5.6 WSW 22 30 12 16 1014.1 1014.1 6.0
25/08:30am 17.2 12.9 7.0 51 5.1 WSW 19 30 10 16 1014.1 1014.1 6.0
25/08:00am 16.3 11.2 7.8 57 4.3 SW 24 32 13 17 1013.7 1013.7 6.0
25/07:30am 15.8 11.9 8.8 63 3.6 WSW 19 33 10 18 1013.4 1013.4 6.0
25/07:00am 14.5 11.3 8.5 67 3.0 SW 15 22 8 12 1012.8 1012.8 6.0
25/06:30am 14.6 11.4 8.3 66 3.2 SSW 15 26 8 14 1012.1 1012.1 6.0
25/06:00am 13.8 12.4 9.5 75 2.2 S 7 15 4 8 1011.4 1011.3 6.0
25/05:30am 13.9 11.3 9.5 75 2.3 SSE 13 17 7 9 1010.5 1010.4 6.0
25/05:00am 14.2 10.0 9.6 74 2.4 SSW 22 30 12 16 1009.8 1009.7 6.0
25/04:30am 15.1 11.4 10.3 73 2.5 SSW 20 32 11 17 1009.0 1008.9 6.0
25/04:00am 15.8 9.7 11.6 76 2.3 SSW 35 44 19 24 1008.3 1008.2 6.0
25/03:30am 17.2 14.5 12.9 76 2.4 SW 19 30 10 16 1007.8 1007.7 6.0
25/03:00am 17.1 15.0 13.6 80 2.0 SSW 17 24 9 13 1007.4 1007.3 6.0
25/02:30am 17.3 14.8 14.0 81 1.9 SSW 20 28 11 15 1007.4 1007.3 6.0
25/02:00am 18.1 18.4 16.9 93 0.7 SW 11 19 6 10 1007.0 1006.9 6.0
25/01:30am 18.2 17.6 17.6 96 0.4 SSW 17 22 9 12 1006.7 1006.6 6.0
25/01:00am 18.7 19.2 18.4 98 0.2 SSW 13 20 7 11 1006.6 1006.5 6.0
25/12:30am 19.1 20.5 18.6 97 0.3 WNW 9 13 5 7 1005.8 1005.7 6.0
25/12:00am 18.9 19.5 18.7 99 0.1 N 13 19 7 10 1006.3 1006.2 6.0
 
Date/Time
EDT
Temp
°C
App
Temp
°C
Dew
Point
Rel
Hum
%
Delta-T
°C
Wind Press
QNH
hPa
Press
MSL
hPa
Rain
since 9 am
mm
Dir
 
Spd
km/h
Gust
km/h
Spd
kts
Gust
kts
24/11:43pm 18.9 20.3 18.7 99 0.1 E 9 13 5 7 1006.6 1006.5 6.0
24/11:30pm 18.9 21.6 18.7 99 0.1 SSW 2 6 1 3 1008.7 1008.6 5.8
24/11:00pm 19.3 20.8 19.0 98 0.2 E 9 11 5 6 1008.8 1008.7 5.8
24/10:30pm 19.4 21.4 18.7 96 0.4 NNW 6 13 3 7 1009.2 1009.1 4.8
24/10:00pm 19.0 21.0 18.7 98 0.2 S 6 9 3 5 1007.9 1007.8 4.2
24/09:30pm 19.1 21.0 18.6 97 0.3 NNE 6 9 3 5 1007.4 1007.3 4.2
24/09:00pm 19.3 19.6 18.8 97 0.3 N 15 20 8 11 1007.6 1007.5 4.2
24/08:30pm 18.7 20.9 18.4 98 0.2 NW 4 9 2 5 1008.2 1008.1 4.2
24/08:00pm 19.0 21.3 18.5 97 0.3 E 4 7 2 4 1007.5 1007.4 4.2
24/07:30pm 19.4 21.2 18.7 96 0.4 SSE 7 11 4 6 1007.1 1007.0 4.2

Other Formats:

Comma delimited format used in spreadsheet applications
http://www.bom.gov.au/fwo/IDN60801/IDN60801.95931.axf

JavaScript Object Notation format (JSON) in row-major order
http://www.bom.gov.au/fwo/IDN60801/IDN60801.95931.json